16:11
Airports
Links
Donate
Help keep this website running!
PayPal
Bitcoin
METAR
CYXR 241600Z AUTO 28007KT 9SM BKN034 M02/M09 A3022 RMK SLP250
Current Weather Conditions at CYXR
VFR 16:00:00 24-02-18
Automated station, no observer
Altimeter:30.22 hg
Temp:-2.0°c 28°f
Dew point:-9.0°c 16°f
Wind:7 knots, 8.1 mph, 4 m/s, from 280°
Visibility:9.0 statute miles
3400(BKN) Broken
Past METAR reports
VFR 15:00:00 24-02-18
Automated station, no observer
Altimeter:30.21 hg
Temp:-4.0°c 25°f
Dew point:-8.0°c 18°f
Wind:6 knots, 6.9 mph, 3 m/s, from 230°
Visibility:9.0 statute miles
3900(SCT) Scattered
CYXR 241500Z AUTO 23006KT 9SM SCT039 M04/M08 A3021 RMK ICG PAST HR SLP245
VFR 14:29:00 24-02-18
Automated station, no observer
Altimeter:30.20 hg
Temp:-4.0°c 25°f
Dew point:-7.0°c 19°f
Wind:4 knots, 4.6 mph, 2 m/s, from 230°
Visibility:9.0 statute miles
3900(FEW) A few
CYXR 241429Z AUTO 23004KT 9SM FEW039 M04/M07 A3020 RMK ICG PAST HR SLP244
VFR 14:11:00 24-02-18
Automated station, no observer
Altimeter:30.20 hg
Temp:-6.0°c 21°f
Dew point:-8.0°c 18°f
Wind:5 knots, 5.8 mph, 3 m/s, from 200°
Visibility:9.0 statute miles
3800(FEW) A few
CYXR 241411Z AUTO 20005KT 9SM FEW038 M06/M08 A3020 RMK ICG SLP243
VFR 14:09:00 24-02-18
Automated station, no observer
Altimeter:30.20 hg
Temp:-6.0°c 21°f
Dew point:-8.0°c 18°f
Wind:5 knots, 5.8 mph, 3 m/s, from 200°
Visibility:9.0 statute miles
3800(SCT) Scattered
CYXR 241409Z AUTO 20005KT 9SM SCT038 M06/M08 A3020 RMK ICG PAST HR SLP244
VFR 14:00:00 24-02-18
Automated station, no observer
Altimeter:30.20 hg
Temp:-5.0°c 23°f
Dew point:-8.0°c 18°f
Wind:4 knots, 4.6 mph, 2 m/s, from 210°
Visibility:9.0 statute miles
3800(SCT) Scattered
CYXR 241400Z AUTO 21004KT 9SM SCT038 M05/M08 A3020 RMK ICG INTMT SLP245
VFR 13:00:00 24-02-18
Automated station, no observer
Altimeter:30.19 hg
Temp:-6.0°c 21°f
Dew point:-8.0°c 18°f
Wind:3 knots, 3.5 mph, 2 m/s, from 240°
Visibility:9.0 statute miles
3600(OVC) Overcast
CYXR 241300Z AUTO 24003KT 9SM OVC036 M06/M08 A3019 RMK ICG SLP242
TAF
TAF CYXR 241239Z 2413/2501 30005KT P6SM -SN OVC020 TEMPO 2413/2418 P6SM NSW OVC030 FM241800 23005KT P6SM BKN030 TEMPO 2420/2424 SCT030 BECMG 2420/2422 15007KT RMK FCST BASED ON AUTO OBS. NXT FCST BY 241800Z
Forecast at CYXR
TEMPO 13:00 24-02-18 to 18:00 24-02-18
NSW
Visibility:6.21 statute miles
3000OVC Overcast
13:00 24-02-18 to 18:00 24-02-18
-SN
Wind:5 Knots from 300°
Visibility:6.21 statute miles
2000OVC Overcast
FM 18:00 24-02-18 to 20:00 24-02-18
Wind:5 Knots from 230°
Visibility:6.21 statute miles
3000BKN Broken
TEMPO 20:00 24-02-18 to 00:00 25-02-18
3000SCT Scattered
BECMG 20:00 24-02-18 to 01:00 25-02-18
Wind:7 Knots from 150°
Visibility:6.21 statute miles
3000BKN Broken